createdAt,value
2023-03-30T00:01:17.208Z,2.53
2023-03-30T00:03:47.688Z,2.83
2023-03-30T00:06:21.955Z,2.95
2023-03-30T00:08:53.478Z,2.90
2023-03-30T00:11:23.230Z,3.30
2023-03-30T00:13:53.794Z,2.90
2023-03-30T00:16:23.061Z,2.85
2023-03-30T00:18:52.490Z,3.38
2023-03-30T00:21:21.410Z,3.53
2023-03-30T00:23:50.341Z,2.92
2023-03-30T00:26:18.732Z,2.70
2023-03-30T00:28:47.206Z,2.60
2023-03-30T00:31:17.163Z,2.88
2023-03-30T00:33:47.315Z,3.03
2023-03-30T00:36:17.046Z,2.97
2023-03-30T00:38:46.280Z,2.92
2023-03-30T00:41:14.597Z,3.00
2023-03-30T00:43:59.818Z,2.97
2023-03-30T00:46:31.159Z,3.08
2023-03-30T00:49:05.282Z,2.83
2023-03-30T00:51:36.958Z,3.00
2023-03-30T00:54:12.273Z,2.70
2023-03-30T00:56:41.275Z,2.47
2023-03-30T00:59:10.571Z,2.90
2023-03-30T01:01:42.031Z,3.10
2023-03-30T01:04:11.352Z,2.95
2023-03-30T01:06:43.621Z,3.15
2023-03-30T01:09:12.176Z,3.40
2023-03-30T01:11:41.125Z,3.03
2023-03-30T01:14:13.334Z,2.72
2023-03-30T01:16:51.434Z,3.30
2023-03-30T01:20:00.348Z,3.10
2023-03-30T01:22:50.748Z,3.30
2023-03-30T01:25:39.759Z,2.60
2023-03-30T01:28:26.927Z,2.97
2023-03-30T01:31:44.423Z,2.85
2023-03-30T01:34:36.471Z,3.00
2023-03-30T01:37:34.511Z,3.20
2023-03-30T01:40:10.783Z,2.50
2023-03-30T01:42:44.352Z,2.60
2023-03-30T01:45:20.247Z,2.60
2023-03-30T01:47:57.241Z,2.72
2023-03-30T01:50:29.815Z,3.00
2023-03-30T01:53:02.407Z,3.08
2023-03-30T01:55:36.448Z,2.50
2023-03-30T01:58:11.775Z,2.58
2023-03-30T02:00:43.693Z,2.60
2023-03-30T02:03:17.279Z,2.85
2023-03-30T02:05:48.235Z,2.67
2023-03-30T02:08:21.097Z,2.70
2023-03-30T02:10:52.894Z,3.03
2023-03-30T02:13:22.610Z,2.55
2023-03-30T02:15:56.496Z,2.50
2023-03-30T02:18:24.944Z,2.60
2023-03-30T02:20:53.438Z,2.63
2023-03-30T02:23:24.448Z,2.40
2023-03-30T02:25:55.356Z,2.45
2023-03-30T02:28:23.700Z,1.92
2023-03-30T02:30:52.277Z,2.00
2023-03-30T02:33:27.028Z,2.42
2023-03-30T02:36:17.818Z,2.40
2023-03-30T02:39:13.956Z,2.00
2023-03-30T02:42:16.720Z,2.00
2023-03-30T02:44:52.744Z,2.50
2023-03-30T02:47:30.074Z,1.90
2023-03-30T02:50:04.936Z,2.05
2023-03-30T02:52:55.144Z,1.77
2023-03-30T02:55:29.678Z,2.40
2023-03-30T02:58:07.553Z,1.85
2023-03-30T03:00:45.602Z,2.08
2023-03-30T03:03:18.833Z,1.90
2023-03-30T03:05:47.614Z,2.15
2023-03-30T03:08:19.508Z,1.98
2023-03-30T03:10:47.902Z,1.77
2023-03-30T03:13:19.083Z,2.35
2023-03-30T03:15:49.699Z,1.85
2023-03-30T03:18:18.623Z,2.13
2023-03-30T03:20:47.148Z,1.63
2023-03-30T03:23:15.486Z,2.08
2023-03-30T03:25:43.966Z,1.90
2023-03-30T03:28:12.325Z,1.77
2023-03-30T03:30:42.802Z,2.08
2023-03-30T03:33:11.333Z,1.80
2023-03-30T03:35:40.499Z,2.10
2023-03-30T03:38:09.074Z,1.80
2023-03-30T03:40:37.509Z,2.03
2023-03-30T03:43:05.947Z,1.80
2023-03-30T03:45:35.266Z,1.90
2023-03-30T03:48:05.173Z,2.15
2023-03-30T03:50:33.550Z,1.85
2023-03-30T03:53:02.053Z,2.05
2023-03-30T03:55:30.665Z,1.90
2023-03-30T03:57:59.403Z,1.85
2023-03-30T04:00:27.796Z,1.65
2023-03-30T04:02:56.192Z,2.00
2023-03-30T04:05:26.880Z,1.75
2023-03-30T04:07:56.827Z,1.88
2023-03-30T04:10:25.901Z,1.73
2023-03-30T04:12:57.102Z,2.22
2023-03-30T04:15:26.151Z,2.50
2023-03-30T04:17:58.329Z,2.03
2023-03-30T04:20:29.992Z,2.22
2023-03-30T04:23:01.896Z,2.80
2023-03-30T04:25:30.444Z,2.85
2023-03-30T04:27:58.892Z,2.88
2023-03-30T04:30:30.551Z,2.50
2023-03-30T04:33:04.490Z,2.60
2023-03-30T04:35:35.311Z,2.92
2023-03-30T04:38:03.690Z,3.58
2023-03-30T04:40:32.139Z,3.17
2023-03-30T04:43:02.758Z,3.55
2023-03-30T04:45:31.959Z,3.20
2023-03-30T04:48:00.364Z,3.92
2023-03-30T04:50:28.664Z,3.45
2023-03-30T04:52:58.342Z,3.72
2023-03-30T04:55:26.664Z,3.58
2023-03-30T04:57:55.531Z,3.70
2023-03-30T05:00:23.914Z,4.05
2023-03-30T05:02:52.430Z,3.45
2023-03-30T05:05:21.250Z,3.42
2023-03-30T05:07:49.676Z,3.42
2023-03-30T05:10:19.607Z,3.83
2023-03-30T05:12:48.663Z,4.07
2023-03-30T05:15:17.501Z,4.20
2023-03-30T05:17:46.438Z,3.22
2023-03-30T05:20:15.276Z,3.83
2023-03-30T05:22:43.668Z,3.85
2023-03-30T05:25:12.263Z,4.10
2023-03-30T05:27:41.954Z,4.28
2023-03-30T05:30:11.477Z,4.20
2023-03-30T05:32:39.877Z,3.92
2023-03-30T05:35:09.096Z,4.30
2023-03-30T05:37:37.524Z,3.90
2023-03-30T05:40:09.667Z,3.78
2023-03-30T05:42:38.284Z,4.30
2023-03-30T05:45:11.216Z,4.10
2023-03-30T05:47:39.721Z,4.25
2023-03-30T05:50:10.135Z,3.90
2023-03-30T05:52:38.688Z,4.50
2023-03-30T05:55:07.968Z,3.67
2023-03-30T05:57:36.349Z,3.90
2023-03-30T06:00:10.839Z,3.85
2023-03-30T06:02:39.378Z,3.42
2023-03-30T06:05:09.315Z,4.57
2023-03-30T06:07:38.152Z,3.85
2023-03-30T06:10:08.596Z,3.65
2023-03-30T06:12:39.467Z,4.10
2023-03-30T06:15:10.994Z,3.47
2023-03-30T06:17:40.390Z,3.53
2023-03-30T06:20:12.514Z,4.03
2023-03-30T06:22:41.946Z,4.00
2023-03-30T06:25:13.788Z,4.30
2023-03-30T06:27:44.703Z,4.20
2023-03-30T06:30:16.288Z,3.60
2023-03-30T06:32:45.082Z,4.40
2023-03-30T06:35:15.847Z,3.50
2023-03-30T06:37:44.637Z,4.35
2023-03-30T06:40:14.950Z,4.57
2023-03-30T06:42:45.229Z,4.13
2023-03-30T06:45:16.441Z,4.13
2023-03-30T06:47:44.746Z,4.47
2023-03-30T06:50:13.571Z,4.60
2023-03-30T06:52:42.004Z,4.22
2023-03-30T06:55:10.672Z,4.07
2023-03-30T06:57:39.100Z,4.05
2023-03-30T07:00:13.589Z,4.10
2023-03-30T07:02:44.796Z,3.90
2023-03-30T07:05:15.817Z,3.80
2023-03-30T07:07:44.197Z,4.43
2023-03-30T07:10:13.170Z,4.22
2023-03-30T07:12:42.740Z,3.70
2023-03-30T07:15:12.415Z,3.67
2023-03-30T07:17:42.869Z,4.78
2023-03-30T07:20:15.080Z,5.03
2023-03-30T07:22:43.524Z,4.18
2023-03-30T07:25:12.078Z,4.47
2023-03-30T07:27:41.103Z,3.72
2023-03-30T07:30:21.241Z,3.97
2023-03-30T07:32:52.577Z,4.15
2023-03-30T07:35:21.573Z,3.75
2023-03-30T07:37:50.987Z,4.13
2023-03-30T07:40:20.161Z,5.15
2023-03-30T07:42:51.050Z,5.38
2023-03-30T07:45:19.600Z,5.13
2023-03-30T07:47:47.969Z,5.03
2023-03-30T07:50:18.255Z,5.75
2023-03-30T07:52:46.713Z,5.25
2023-03-30T07:55:15.236Z,5.18
2023-03-30T07:57:44.277Z,5.68
2023-03-30T08:00:15.504Z,5.25
2023-03-30T08:02:44.888Z,5.18
2023-03-30T08:05:13.402Z,5.70
2023-03-30T08:07:43.784Z,5.25
2023-03-30T08:10:13.061Z,5.38
2023-03-30T08:12:41.594Z,5.88
2023-03-30T08:15:12.324Z,4.80
2023-03-30T08:17:41.368Z,5.20
2023-03-30T08:20:11.705Z,6.22
2023-03-30T08:22:40.370Z,6.10
2023-03-30T08:25:11.921Z,6.25
2023-03-30T08:27:40.321Z,7.47
2023-03-30T08:30:10.966Z,6.03
2023-03-30T08:32:39.395Z,6.60
2023-03-30T08:35:09.837Z,6.28
2023-03-30T08:37:38.399Z,6.60
2023-03-30T08:40:11.736Z,6.20
2023-03-30T08:43:05.270Z,6.72
2023-03-30T08:45:40.399Z,6.47
2023-03-30T08:48:18.661Z,7.00
2023-03-30T08:50:55.652Z,6.40
2023-03-30T08:53:24.350Z,6.43
2023-03-30T08:56:01.481Z,5.57
2023-03-30T08:58:41.738Z,4.93
2023-03-30T09:01:19.500Z,5.45
2023-03-30T09:04:05.826Z,5.70
2023-03-30T09:06:47.309Z,6.07
2023-03-30T09:09:20.107Z,7.95
2023-03-30T09:11:54.854Z,5.90
2023-03-30T09:14:33.946Z,6.45
2023-03-30T09:17:09.516Z,7.03
2023-03-30T09:19:49.134Z,5.97
2023-03-30T09:22:20.170Z,8.48
2023-03-30T09:24:48.630Z,7.18
2023-03-30T09:27:27.456Z,6.57
2023-03-30T09:30:02.585Z,6.75
2023-03-30T09:32:35.025Z,7.40
2023-03-30T09:35:11.855Z,6.95
2023-03-30T09:37:40.509Z,6.32
2023-03-30T09:40:27.855Z,7.28
2023-03-30T09:43:09.705Z,6.68
2023-03-30T09:45:39.102Z,6.35
2023-03-30T09:48:09.938Z,6.30
2023-03-30T09:50:44.626Z,6.82
2023-03-30T09:53:24.955Z,6.50
2023-03-30T09:56:01.448Z,6.22
2023-03-30T09:58:33.656Z,6.00
2023-03-30T10:01:12.943Z,6.45
2023-03-30T10:03:43.481Z,6.25
2023-03-30T10:06:15.972Z,6.28
2023-03-30T10:08:51.273Z,5.82
2023-03-30T10:11:23.840Z,5.05
2023-03-30T10:13:53.848Z,6.32
2023-03-30T10:16:29.553Z,5.50
2023-03-30T10:19:03.366Z,5.10
2023-03-30T10:21:37.951Z,5.25
2023-03-30T10:24:18.704Z,5.25
2023-03-30T10:26:48.464Z,5.93
2023-03-30T10:29:21.901Z,5.00
2023-03-30T10:31:54.046Z,6.60
2023-03-30T10:34:32.444Z,5.65
2023-03-30T10:37:01.387Z,4.78
2023-03-30T10:39:33.509Z,4.97
2023-03-30T10:42:04.282Z,5.50
2023-03-30T10:44:37.075Z,5.75
2023-03-30T10:47:36.520Z,5.75
2023-03-30T10:50:16.432Z,4.53
2023-03-30T10:53:00.663Z,5.32
2023-03-30T10:55:38.053Z,5.30
2023-03-30T10:58:24.456Z,4.75
2023-03-30T11:01:11.236Z,5.15
2023-03-30T11:03:43.692Z,4.90
2023-03-30T11:06:17.950Z,6.13
2023-03-30T11:08:49.790Z,4.65
2023-03-30T11:11:23.501Z,5.07
2023-03-30T11:13:55.779Z,4.50
2023-03-30T11:16:34.472Z,4.78
2023-03-30T11:19:08.779Z,4.70
2023-03-30T11:21:46.211Z,5.13
2023-03-30T11:24:21.289Z,5.18
2023-03-30T11:26:57.351Z,4.70
2023-03-30T11:29:40.041Z,5.57
2023-03-30T11:32:32.592Z,4.70
2023-03-30T11:35:12.990Z,5.70
2023-03-30T11:37:50.389Z,5.50
2023-03-30T11:40:24.864Z,5.55
2023-03-30T11:42:56.503Z,5.25
2023-03-30T11:45:44.965Z,6.00
2023-03-30T11:48:47.466Z,5.00
2023-03-30T11:51:45.681Z,5.68
2023-03-30T11:54:36.533Z,5.05
2023-03-30T11:57:17.522Z,4.68
2023-03-30T12:00:02.559Z,5.07
2023-03-30T12:02:44.388Z,5.25
2023-03-30T12:05:27.632Z,5.00
2023-03-30T12:08:04.739Z,4.82
2023-03-30T12:10:40.870Z,5.65
2023-03-30T12:13:14.103Z,5.18
2023-03-30T12:15:50.044Z,5.40
2023-03-30T12:18:31.515Z,5.75
2023-03-30T12:21:20.097Z,4.95
2023-03-30T12:23:55.506Z,4.45
2023-03-30T12:26:29.431Z,5.13
2023-03-30T12:32:08.652Z,5.07
2023-03-30T12:34:39.253Z,4.82
2023-03-30T12:37:14.814Z,5.03
2023-03-30T12:39:49.042Z,5.45
2023-03-30T12:42:28.260Z,4.18
2023-03-30T12:45:21.477Z,4.93
2023-03-30T12:48:14.635Z,4.85
2023-03-30T12:50:55.144Z,4.85
2023-03-30T12:53:55.161Z,4.55
2023-03-30T12:56:36.000Z,5.40
2023-03-30T12:59:42.233Z,5.32
2023-03-30T13:02:41.537Z,5.30
2023-03-30T13:05:21.461Z,4.90
2023-03-30T13:07:52.069Z,5.22
2023-03-30T13:10:50.045Z,4.93
2023-03-30T13:13:24.404Z,4.28
2023-03-30T13:15:57.204Z,4.88
2023-03-30T13:18:35.811Z,4.95
2023-03-30T13:21:26.073Z,4.65
2023-03-30T13:24:26.294Z,4.80
2023-03-30T13:27:11.960Z,4.60
2023-03-30T13:29:40.829Z,4.20
2023-03-30T13:32:19.488Z,4.22
2023-03-30T13:35:26.834Z,4.70
2023-03-30T13:38:28.526Z,4.95
2023-03-30T13:41:12.081Z,4.68
2023-03-30T13:44:11.632Z,4.53
2023-03-30T13:46:47.940Z,5.00
2023-03-30T13:49:33.562Z,5.65
2023-03-30T13:52:06.793Z,5.13
2023-03-30T13:54:39.955Z,4.93
2023-03-30T13:57:12.777Z,5.13
2023-03-30T13:59:47.411Z,4.95
2023-03-30T14:02:19.091Z,5.78
2023-03-30T14:04:49.230Z,4.70
2023-03-30T14:07:22.265Z,4.93
2023-03-30T14:10:14.163Z,5.05
2023-03-30T14:12:43.570Z,4.00
2023-03-30T14:15:23.733Z,4.13
2023-03-30T14:17:56.286Z,3.88
2023-03-30T14:20:46.712Z,3.80
2023-03-30T14:23:19.569Z,4.45
2023-03-30T14:28:37.351Z,3.90
2023-03-30T14:31:15.016Z,3.88
2023-03-30T14:33:43.505Z,4.63
2023-03-30T14:36:16.495Z,4.28
2023-03-30T14:38:48.239Z,4.13
2023-03-30T14:41:22.825Z,4.47
2023-03-30T14:43:57.495Z,3.90
2023-03-30T14:46:29.888Z,4.18
2023-03-30T14:48:59.602Z,3.70
2023-03-30T14:51:37.255Z,4.32
2023-03-30T14:54:07.878Z,4.63
2023-03-30T14:56:36.967Z,4.50
2023-03-30T14:59:07.810Z,4.85
2023-03-30T15:01:36.642Z,4.55
2023-03-30T15:04:12.258Z,5.38
2023-03-30T15:06:41.216Z,4.88
2023-03-30T15:09:17.255Z,4.80
2023-03-30T15:11:49.477Z,4.47
2023-03-30T15:14:22.665Z,4.32
2023-03-30T15:16:54.898Z,4.63
2023-03-30T15:19:30.061Z,4.68
2023-03-30T15:22:03.596Z,5.00
2023-03-30T15:24:36.158Z,4.80
2023-03-30T15:27:06.884Z,4.20
2023-03-30T15:29:36.676Z,4.82
2023-03-30T15:32:09.504Z,4.47
2023-03-30T15:34:38.796Z,4.80
2023-03-30T15:37:23.059Z,4.85
2023-03-30T15:39:51.553Z,4.32
2023-03-30T15:42:27.482Z,5.30
2023-03-30T15:45:10.119Z,4.10
2023-03-30T15:47:38.930Z,4.88
2023-03-30T15:50:13.088Z,7.00
2023-03-30T15:52:45.460Z,5.10
2023-03-30T15:55:20.944Z,5.07
2023-03-30T15:57:52.348Z,5.00
2023-03-30T16:00:25.189Z,6.05
2023-03-30T16:02:58.609Z,5.10
2023-03-30T16:05:29.199Z,4.65
2023-03-30T16:07:57.811Z,4.18
2023-03-30T16:10:28.849Z,4.95
2023-03-30T16:12:59.352Z,4.78
2023-03-30T16:15:32.351Z,4.38
2023-03-30T16:18:01.141Z,5.03
2023-03-30T16:20:32.070Z,5.00
2023-03-30T16:23:01.418Z,4.95
2023-03-30T16:25:44.193Z,5.55
2023-03-30T16:28:17.624Z,4.50
2023-03-30T16:30:52.246Z,5.40
2023-03-30T16:33:20.831Z,5.07
2023-03-30T16:35:49.313Z,6.10
2023-03-30T16:38:18.610Z,5.47
2023-03-30T16:40:48.837Z,5.35
2023-03-30T16:43:17.254Z,5.13
2023-03-30T16:45:47.331Z,6.00
2023-03-30T16:48:16.285Z,6.07
2023-03-30T16:50:46.693Z,5.05
2023-03-30T16:53:16.143Z,4.80
2023-03-30T16:55:45.410Z,5.30
2023-03-30T16:58:15.929Z,5.40
2023-03-30T17:00:48.631Z,4.22
2023-03-30T17:03:17.377Z,5.25
2023-03-30T17:05:48.754Z,5.22
2023-03-30T17:08:51.344Z,5.38
2023-03-30T17:11:19.799Z,5.80
2023-03-30T17:13:49.138Z,5.20
2023-03-30T17:16:19.131Z,6.10
2023-03-30T17:18:47.574Z,5.60
2023-03-30T17:21:17.258Z,5.55
2023-03-30T17:23:47.859Z,5.75
2023-03-30T17:26:17.099Z,6.13
2023-03-30T17:28:46.461Z,5.35
2023-03-30T17:31:19.805Z,5.95
2023-03-30T17:33:49.392Z,5.97
2023-03-30T17:36:20.344Z,5.97
2023-03-30T17:38:49.834Z,5.63
2023-03-30T17:41:20.352Z,5.85
2023-03-30T17:43:50.132Z,5.63
2023-03-30T17:46:21.925Z,5.63
2023-03-30T17:48:51.591Z,5.28
2023-03-30T17:51:20.644Z,5.97
2023-03-30T17:53:48.985Z,5.57
2023-03-30T17:56:17.527Z,5.43
2023-03-30T17:58:46.036Z,4.80
2023-03-30T18:01:16.849Z,5.32
2023-03-30T18:03:46.857Z,4.93
2023-03-30T18:06:15.798Z,5.15
2023-03-30T18:08:44.306Z,4.20
2023-03-30T18:11:13.047Z,4.97
2023-03-30T18:13:41.678Z,4.85
2023-03-30T18:16:14.244Z,4.45
2023-03-30T18:18:42.824Z,4.57
2023-03-30T18:21:13.110Z,5.03
2023-03-30T18:23:41.518Z,4.63
2023-03-30T18:26:14.045Z,4.75
2023-03-30T18:28:44.411Z,5.35
2023-03-30T18:31:13.341Z,5.95
2023-03-30T18:33:41.781Z,5.10
2023-03-30T18:36:13.593Z,4.88
2023-03-30T18:38:42.466Z,5.30
2023-03-30T18:41:13.461Z,5.00
2023-03-30T18:43:41.976Z,5.30
2023-03-30T18:46:12.966Z,5.85
2023-03-30T18:48:41.476Z,6.13
2023-03-30T18:51:13.378Z,5.03
2023-03-30T18:53:41.939Z,5.75
2023-03-30T18:56:13.961Z,5.72
2023-03-30T18:58:43.083Z,4.93
2023-03-30T19:01:13.446Z,5.50
2023-03-30T19:03:42.504Z,5.55
2023-03-30T19:06:16.918Z,5.15
2023-03-30T19:08:45.333Z,5.55
2023-03-30T19:11:18.299Z,5.88
2023-03-30T19:13:47.648Z,5.32
2023-03-30T19:16:18.737Z,5.60
2023-03-30T19:18:49.382Z,5.38
2023-03-30T19:21:20.103Z,5.35
2023-03-30T19:23:50.198Z,6.22
2023-03-30T19:26:19.189Z,5.47
2023-03-30T19:28:47.596Z,4.80
2023-03-30T19:31:16.587Z,5.40
2023-03-30T19:33:45.609Z,4.85
2023-03-30T19:36:14.314Z,3.85
2023-03-30T19:38:45.858Z,4.88
2023-03-30T19:41:14.364Z,4.20
2023-03-30T19:43:43.579Z,4.40
2023-03-30T19:46:11.990Z,3.90
2023-03-30T19:48:41.872Z,3.78
2023-03-30T19:51:10.947Z,4.00
2023-03-30T19:53:39.918Z,3.45
2023-03-30T19:56:11.835Z,3.72
2023-03-30T19:58:40.624Z,3.95
2023-03-30T20:01:09.777Z,4.18
2023-03-30T20:03:38.801Z,3.80
2023-03-30T20:06:11.088Z,3.42
2023-03-30T20:08:51.094Z,3.65
2023-03-30T20:11:22.136Z,4.35
2023-03-30T20:13:51.680Z,4.07
2023-03-30T20:16:21.365Z,3.97
2023-03-30T20:18:51.807Z,4.18
2023-03-30T20:21:21.823Z,4.75
2023-03-30T20:23:50.744Z,4.28
2023-03-30T20:26:21.414Z,4.70
2023-03-30T20:28:50.852Z,3.80
2023-03-30T20:31:19.750Z,4.05
2023-03-30T20:33:48.512Z,3.67
2023-03-30T20:36:17.333Z,3.78
2023-03-30T20:38:47.122Z,3.88
2023-03-30T20:41:16.737Z,5.00
2023-03-30T20:43:56.958Z,3.90
2023-03-30T20:46:35.618Z,4.20
2023-03-30T20:49:04.355Z,3.85
2023-03-30T20:51:33.700Z,3.97
2023-03-30T20:54:02.433Z,4.00
2023-03-30T20:56:30.841Z,4.15
2023-03-30T20:59:01.431Z,3.92
2023-03-30T21:01:30.385Z,4.03
2023-03-30T21:04:02.574Z,4.47
2023-03-30T21:06:32.633Z,4.40
2023-03-30T21:09:03.880Z,4.43
2023-03-30T21:11:34.128Z,4.88
2023-03-30T21:14:04.384Z,7.25
2023-03-30T21:16:33.571Z,4.78
2023-03-30T21:19:02.240Z,5.03
2023-03-30T21:21:31.392Z,4.00
2023-03-30T21:24:00.778Z,3.70
2023-03-30T21:26:30.569Z,3.58
2023-03-30T21:28:58.941Z,3.50
2023-03-30T21:31:29.543Z,3.90
2023-03-30T21:33:57.961Z,3.60
2023-03-30T21:36:26.686Z,3.50
2023-03-30T21:38:57.690Z,3.83
2023-03-30T21:41:26.349Z,4.65
2023-03-30T21:43:54.715Z,2.95
2023-03-30T21:46:26.703Z,3.08
2023-03-30T21:48:56.913Z,4.00
2023-03-30T21:51:27.452Z,3.35
2023-03-30T21:53:57.886Z,3.55
2023-03-30T21:56:29.980Z,3.25
2023-03-30T21:58:58.562Z,4.05
2023-03-30T22:01:27.165Z,3.33
2023-03-30T22:03:57.522Z,4.53
2023-03-30T22:06:26.089Z,3.88
2023-03-30T22:08:55.168Z,4.18
2023-03-30T22:11:26.656Z,3.80
2023-03-30T22:13:56.567Z,3.50
2023-03-30T22:16:28.367Z,4.00
2023-03-30T22:18:58.572Z,3.92
2023-03-30T22:21:33.943Z,3.78
2023-03-30T22:24:03.398Z,4.72
2023-03-30T22:26:32.137Z,3.42
2023-03-30T22:29:01.204Z,3.72
2023-03-30T22:31:29.560Z,3.08
2023-03-30T22:33:59.981Z,3.63
2023-03-30T22:36:31.239Z,4.18
2023-03-30T22:39:01.474Z,2.80
2023-03-30T22:41:30.332Z,3.65
2023-03-30T22:43:59.454Z,4.13
2023-03-30T22:46:28.777Z,3.70
2023-03-30T22:49:00.541Z,3.85
2023-03-30T22:51:28.971Z,3.63
2023-03-30T22:53:59.694Z,3.35
2023-03-30T22:56:30.012Z,3.50
2023-03-30T22:59:00.340Z,4.30
2023-03-30T23:01:32.657Z,3.67
2023-03-30T23:04:03.476Z,3.60
2023-03-30T23:06:33.777Z,3.67
2023-03-30T23:09:02.708Z,4.07
2023-03-30T23:11:32.129Z,3.17
2023-03-30T23:14:05.047Z,3.58
2023-03-30T23:16:36.110Z,2.83
2023-03-30T23:19:06.633Z,3.38
2023-03-30T23:21:36.100Z,3.00
2023-03-30T23:24:07.903Z,3.95
2023-03-30T23:26:36.472Z,3.75
2023-03-30T23:29:05.789Z,2.30
2023-03-30T23:31:34.950Z,3.60
2023-03-30T23:34:03.542Z,2.97
2023-03-30T23:36:33.868Z,3.58
2023-03-30T23:39:02.388Z,3.22
2023-03-30T23:41:31.131Z,2.38
2023-03-30T23:43:59.464Z,3.50
2023-03-30T23:46:28.173Z,3.53
2023-03-30T23:48:56.906Z,3.25
2023-03-30T23:51:25.239Z,3.22
2023-03-30T23:53:56.873Z,3.70
2023-03-30T23:56:27.861Z,3.05
2023-03-30T23:58:56.890Z,2.88
